Meteo Giornale » Osservazioni meteo Stati Uniti (USA) » Jackson Hole
ore: 14:56 - Osservazioni Meteo Jackson Hole
Lat. 43° 36' N Lon. 110° 44' W Alt. 1964 metri s.l.m.
24 °C
Sereno
Temp. 24 Ore
-2 °C
24 °C
Sud
16.7 Km/h
Dew point 1 °C
Umidità 22 %
Visibilità 10 Km
Il sole sorge alle ore 06:45
Il sole tramonta alle ore 20:00
| Data e Ora | Cielo e Fenomeni | T °C | DP °C | Um. % | Pres. hPa | Vis. km | Vento km/h | |
|---|---|---|---|---|---|---|---|---|
| Oggi h: 14:56 | Sereno | 24 | 1 | 22 | 1021 | 10 | S 16.7 | |
| Oggi h: 13:56 | Sereno | 22 | 1 | 24 | 1022 | 10 | SO 14.8 | |
| Oggi h: 12:56 | Sereno | 21 | 1 | 26 | 1023 | 10 | S/SO 14.8 | |
| Oggi h: 11:56 | Sereno | 17 | 2 | 36 | 1024 | 10 | S 9.3 | |
| Oggi h: 10:56 | Sereno | 13 | -1 | 37 | 1024 | 10 | N 7.4 | |
| Oggi h: 09:56 | Sereno | 9 | -2 | 45 | 1024 | 10 | N 0 | |
| Oggi h: 08:56 | Sereno | 6 | -1 | 60 | 1025 | 10 | N 0 | |
| Oggi h: 07:56 | Sereno | 1 | -2 | 80 | 1024 | 10 | N/NE 9.3 | |
| Oggi h: 06:56 | Sereno | -1 | -3 | 86 | 1024 | 10 | N 13 | |
| Oggi h: 06:41 | Sereno | -2 | -3 | 92 | 1023 | 10 | N 13 | |
| Oggi h: 05:56 | Sereno | -1 | -2 | 92 | 1023 | 10 | N 5.5 | |
| Oggi h: 04:56 | Sereno | 0 | -2 | 86 | 1023 | 10 | N/NE 13 | |
| Oggi h: 03:56 | Sereno | 0 | -2 | 86 | 1023 | 10 | N 13 | |
| Oggi h: 02:56 | Sereno | 2 | -2 | 74 | 1023 | 10 | N 5.5 | |
| Oggi h: 01:56 | Sereno | 2 | -1 | 80 | 1023 | 10 | N 5.5 | |
| Oggi h: 00:56 | Sereno | 6 | -2 | 56 | 1022 | 10 | N 5.5 | |
| Ieri h: 23:56 | Sereno | 8 | -2 | 49 | 1022 | 10 | N 0 | |
| Ieri h: 22:56 | Sereno | 9 | -4 | 39 | 1022 | 10 | N 0 | |
| Ieri h: 21:56 | Sereno | 11 | -3 | 37 | 1021 | 10 | S 9.3 | |
| Ieri h: 20:56 | Sereno | 12 | -2 | 37 | 1021 | 10 | N 5.5 | |
| Ieri h: 19:56 | Sereno | 14 | -4 | 28 | 1020 | 10 | O 13 | |
| Ieri h: 18:56 | Sereno | 18 | -3 | 23 | 1020 | 10 | O/SO 18.5 | |
| Ieri h: 17:56 | Sereno | 19 | -4 | 20 | 1020 | 10 | O 24 | |
| Ieri h: 16:56 | Sereno | 20 | -4 | 19 | 1020 | 10 | O 24 | |
| Ieri h: 15:56 | Sereno | 19 | -4 | 20 | 1020 | 10 | O 35.2 | |



